Time;durP1;ratioP1;P1;durP2;ratioP2;P2;SDS_P1;SDS_P2;PMS_P1;PMS_P2;Temp;Humidity;BMP_temperature;BMP_pressure;BME280_temperature;BME280_humidity;BME280_pressure;Samples;Min_cycle;Max_cycle;Signal;HPM_P1;HPM_P2
2022/04/12 00:01:50;;;;;;;2.55;2.35;;;;;;;4.21;86.61;99148.31;4975569;28;20062;-57
2022/04/12 00:04:16;;;;;;;2.10;1.90;;;;;;;4.16;86.96;99145.75;4972953;28;20077;-57
2022/04/12 00:06:41;;;;;;;2.38;2.17;;;;;;;4.15;87.15;99137.22;4972975;28;20051;-57
2022/04/12 00:09:07;;;;;;;2.10;2.00;;;;;;;4.09;86.97;99129.59;4958186;28;20027;-58
2022/04/12 00:11:32;;;;;;;1.92;1.83;;;;;;;4.23;87.16;99132.09;4972706;28;20046;-58
2022/04/12 00:13:58;;;;;;;2.50;2.30;;;;;;;4.26;86.51;99136.31;4972758;28;20034;-58
2022/04/12 00:16:23;;;;;;;1.90;1.80;;;;;;;4.27;87.25;99149.13;4970339;28;20040;-58
2022/04/12 00:19:04;;;;;;;2.10;1.88;;;;;;;4.13;87.14;99141.53;4970768;28;20035;-57
2022/04/12 00:21:34;;;;;;;1.92;1.83;;;;;;;4.17;87.49;99137.22;4959321;28;20058;-58
2022/04/12 00:24:07;;;;;;;1.85;1.75;;;;;;;4.17;86.62;99137.22;4970654;28;20049;-57
2022/04/12 00:26:33;;;;;;;1.88;1.77;;;;;;;4.09;87.24;99133.84;4972794;28;20038;-58
2022/04/12 00:28:59;;;;;;;3.22;1.75;;;;;;;4.24;87.39;99138.06;4972352;28;20395;-58
2022/04/12 00:31:24;;;;;;;1.67;1.58;;;;;;;3.97;87.12;99102.28;4972746;28;20019;-58
2022/04/12 00:33:50;;;;;;;2.00;1.90;;;;;;;4.18;87.26;99131.25;4972411;28;20027;-57
2022/04/12 00:36:15;;;;;;;2.20;2.00;;;;;;;4.17;87.56;99128.69;4972743;28;20027;-57
2022/04/12 00:38:41;;;;;;;2.28;2.08;;;;;;;4.20;87.42;99134.63;4972581;28;20027;-57
2022/04/12 00:41:08;;;;;;;2.20;2.00;;;;;;;4.25;87.46;99122.66;4971829;28;20030;-57
2022/04/12 00:43:38;;;;;;;2.22;2.08;;;;;;;3.72;86.46;99067.38;4972160;28;20387;-58
2022/04/12 00:46:04;;;;;;;2.10;2.00;;;;;;;4.05;86.84;99122.75;4972470;28;20098;-57
2022/04/12 00:48:31;;;;;;;2.45;2.28;;;;;;;4.04;87.78;99125.34;4975562;28;20027;-57
2022/04/12 00:50:58;;;;;;;3.28;2.45;;;;;;;4.04;87.22;99097.16;4976253;28;20037;-58
2022/04/12 00:53:25;;;;;;;2.10;2.00;;;;;;;4.09;87.73;99115.91;4975710;28;20027;-58
2022/04/12 00:55:50;;;;;;;2.28;2.08;;;;;;;4.18;87.13;99118.44;4975604;28;20019;-58
2022/04/12 00:58:17;;;;;;;2.80;2.20;;;;;;;4.20;87.25;99116.69;4975675;28;20038;-58
2022/04/12 01:00:43;;;;;;;2.67;2.47;;;;;;;4.31;87.89;99109.81;4975581;28;20057;-57
2022/04/12 01:03:08;;;;;;;2.03;1.92;;;;;;;4.29;86.68;99101.28;4976657;28;20410;-57
2022/04/12 01:05:35;;;;;;;2.20;2.10;;;;;;;4.36;86.95;99080.75;4976005;28;20079;-58
2022/04/12 01:08:02;;;;;;;2.40;2.20;;;;;;;4.13;87.66;99077.47;4975262;28;20046;-58
2022/04/12 01:10:28;;;;;;;2.50;2.30;;;;;;;4.05;87.59;99070.69;4980465;28;20475;-57
2022/04/12 01:12:54;;;;;;;2.67;2.47;;;;;;;4.14;87.72;99063.78;4989753;28;20023;-57
2022/04/12 01:15:24;;;;;;;2.80;2.60;;;;;;;4.12;87.41;99056.97;4975883;28;20590;-58
2022/04/12 01:17:51;;;;;;;2.42;2.33;;;;;;;4.15;87.80;99060.34;4975890;28;20027;-58
2022/04/12 01:20:19;;;;;;;3.97;2.90;;;;;;;3.76;87.63;98985.44;4970285;28;20029;-58
2022/04/12 01:22:55;;;;;;;3.00;2.70;;;;;;;4.14;87.96;99045.00;4961871;28;20634;-58
2022/04/12 01:25:22;;;;;;;3.25;3.05;;;;;;;3.62;88.03;98980.38;4974998;28;20092;-58
2022/04/12 01:27:48;;;;;;;2.63;2.42;;;;;;;4.02;87.61;99058.72;4975267;28;20490;-57
2022/04/12 01:30:14;;;;;;;2.58;2.40;;;;;;;3.73;88.20;99035.81;4975235;28;20030;-57
2022/04/12 01:32:39;;;;;;;2.55;2.35;;;;;;;4.08;88.54;99066.38;4975258;28;20105;-58
2022/04/12 01:35:06;;;;;;;2.80;2.60;;;;;;;3.93;88.57;99066.44;4984875;28;20102;-57
2022/04/12 01:37:31;;;;;;;2.75;2.55;;;;;;;3.95;88.40;99050.22;4987539;28;20037;-57
2022/04/12 01:39:57;;;;;;;3.22;2.97;;;;;;;4.04;88.04;99051.03;4979675;28;20113;-58
2022/04/12 01:42:22;;;;;;;2.80;2.60;;;;;;;3.84;88.07;99049.41;4982196;28;20026;-57
2022/04/12 01:44:48;;;;;;;3.00;2.80;;;;;;;4.02;88.72;99045.06;4980959;28;20088;-57
2022/04/12 01:47:13;;;;;;;2.90;2.70;;;;;;;4.13;88.68;99050.97;4975174;28;20023;-57
2022/04/12 01:49:39;;;;;;;3.05;2.75;;;;;;;4.10;87.51;99048.44;4974724;28;20110;-57
2022/04/12 01:52:05;;;;;;;2.88;2.67;;;;;;;4.18;87.67;99038.16;4974810;28;20062;-58
2022/04/12 01:54:30;;;;;;;2.75;2.55;;;;;;;4.14;88.15;99034.75;4975204;28;20105;-58
2022/04/12 01:56:56;;;;;;;3.08;2.88;;;;;;;4.26;87.91;99033.81;4975722;28;20038;-57
2022/04/12 01:59:22;;;;;;;2.85;2.58;;;;;;;4.15;87.22;99034.72;4973727;28;20411;-58
2022/04/12 02:01:48;;;;;;;3.15;2.88;;;;;;;4.23;87.08;99041.53;4974225;28;20042;-58
2022/04/12 02:04:13;;;;;;;3.30;2.60;;;;;;;4.28;87.34;99043.19;4974789;28;20053;-58
2022/04/12 02:06:39;;;;;;;2.92;2.65;;;;;;;4.32;87.30;99044.88;4974669;28;20027;-58
2022/04/12 02:09:04;;;;;;;3.17;2.88;;;;;;;4.32;87.02;99044.03;4972077;28;20472;-58
2022/04/12 02:11:30;;;;;;;2.75;2.55;;;;;;;4.34;86.72;99033.78;4961295;28;20027;-57
2022/04/12 02:13:55;;;;;;;2.95;2.75;;;;;;;4.37;86.92;99024.34;4962410;28;20429;-58
2022/04/12 02:16:23;;;;;;;3.03;2.83;;;;;;;4.25;87.61;99006.50;4978064;28;20098;-58
2022/04/12 02:18:48;;;;;;;2.80;2.60;;;;;;;4.35;87.58;99017.50;4992815;28;20038;-58
2022/04/12 02:21:14;;;;;;;3.20;2.90;;;;;;;4.30;87.10;99013.28;4954745;28;20034;-58
2022/04/12 02:23:40;;;;;;;2.60;2.40;;;;;;;4.41;87.49;99023.47;4967161;28;20101;-58
2022/04/12 02:26:05;;;;;;;3.03;2.83;;;;;;;4.43;87.47;99024.31;4972159;28;20049;-58
2022/04/12 02:28:31;;;;;;;2.65;2.45;;;;;;;4.51;86.80;99026.81;4974089;28;20030;-58
2022/04/12 02:30:57;;;;;;;3.22;2.92;;;;;;;4.38;86.66;99010.66;4974278;28;20031;-58
2022/04/12 02:33:22;;;;;;;2.90;2.70;;;;;;;4.28;87.35;99017.56;4974116;28;20476;-58
2022/04/12 02:35:48;;;;;;;3.05;2.80;;;;;;;4.24;87.45;99009.91;4974562;28;20459;-58
2022/04/12 02:38:14;;;;;;;3.50;3.20;;;;;;;4.32;87.33;99021.81;4974073;28;20058;-58
2022/04/12 02:40:39;;;;;;;3.10;2.90;;;;;;;4.26;87.01;99034.69;4979946;28;20026;-58
2022/04/12 02:43:05;;;;;;;3.17;2.88;;;;;;;4.36;87.21;99029.47;4992188;28;20459;-58
2022/04/12 02:45:30;;;;;;;3.15;2.85;;;;;;;4.28;86.86;99035.50;4974192;28;20041;-58
2022/04/12 02:47:56;;;;;;;3.30;3.00;;;;;;;4.44;87.39;99048.22;4974053;28;20053;-57
2022/04/12 02:50:22;;;;;;;3.20;2.95;;;;;;;4.44;86.91;99043.94;4973921;28;20138;-56
2022/04/12 02:52:48;;;;;;;3.17;2.95;;;;;;;4.51;87.13;99025.97;4973869;28;20042;-57
2022/04/12 02:55:14;;;;;;;3.38;3.00;;;;;;;4.52;86.40;99013.13;4973730;28;20035;-57
2022/04/12 02:57:39;;;;;;;3.55;3.25;;;;;;;4.47;86.66;98996.91;4974074;28;20424;-57
2022/04/12 03:00:06;;;;;;;3.10;2.90;;;;;;;4.46;87.41;99011.47;4973721;28;20434;-57
2022/04/12 03:02:31;;;;;;;3.47;3.22;;;;;;;4.53;86.70;99013.97;4988345;28;20467;-58
2022/04/12 03:04:57;;;;;;;3.50;3.20;;;;;;;4.50;86.55;99025.09;4972508;28;20023;-58
2022/04/12 03:07:22;;;;;;;3.55;3.25;;;;;;;4.43;86.77;99036.25;4957290;28;20467;-57
2022/04/12 03:09:49;;;;;;;3.33;2.97;;;;;;;4.57;87.47;99034.44;4973300;28;20019;-57
2022/04/12 03:12:15;;;;;;;3.80;3.50;;;;;;;4.44;87.38;99033.69;4969206;28;20035;-57
2022/04/12 03:14:40;;;;;;;3.60;3.30;;;;;;;4.57;87.22;99037.00;4967573;28;20034;-56
2022/04/12 03:17:06;;;;;;;4.50;4.10;;;;;;;4.15;88.12;99033.91;4973636;28;20050;-57
2022/04/12 03:19:32;;;;;;;4.43;4.03;;;;;;;4.37;87.82;99026.06;4973201;28;20472;-58
2022/04/12 03:21:57;;;;;;;4.00;3.60;;;;;;;4.36;88.13;99032.03;4956035;28;20023;-57
2022/04/12 03:24:23;;;;;;;4.75;4.35;;;;;;;4.31;88.11;99014.97;4955506;28;20030;-57
2022/04/12 03:26:49;;;;;;;4.30;3.90;;;;;;;4.43;87.92;99016.63;4987941;28;20390;-56
2022/04/12 03:29:16;;;;;;;5.75;3.97;;;;;;;4.19;87.65;99012.50;4972648;28;20442;-57
2022/04/12 03:31:42;;;;;;;5.13;4.63;;;;;;;4.24;88.83;99005.63;4966998;28;20042;-57
2022/04/12 03:34:08;;;;;;;5.13;4.25;;;;;;;4.43;87.81;99026.00;4954989;28;20094;-57
2022/04/12 03:36:34;;;;;;;4.88;4.10;;;;;;;4.35;88.67;99028.63;4972074;28;20074;-58
2022/04/12 03:38:59;;;;;;;4.07;3.75;;;;;;;4.42;88.58;99032.00;4972894;28;20038;-57
2022/04/12 03:41:25;;;;;;;4.60;4.20;;;;;;;4.40;87.92;99028.59;4976933;28;20077;-57
2022/04/12 03:43:51;;;;;;;5.22;4.40;;;;;;;4.43;88.06;99018.31;4972799;28;20387;-57
2022/04/12 03:46:17;;;;;;;5.25;4.70;;;;;;;4.47;87.93;99018.28;4975245;28;20038;-57
2022/04/12 03:48:43;;;;;;;7.50;5.15;;;;;;;4.44;88.54;99022.59;4992574;28;20046;-58
2022/04/12 03:51:09;;;;;;;5.97;4.75;;;;;;;4.65;88.38;99026.72;4963565;28;20031;-58
2022/04/12 03:53:36;;;;;;;5.85;4.82;;;;;;;4.33;88.06;98994.47;4973075;28;20630;-58
2022/04/12 03:56:07;;;;;;;5.65;5.15;;;;;;;4.32;88.95;99019.25;4972968;28;20031;-58
2022/04/12 03:58:34;;;;;;;5.68;4.88;;;;;;;4.32;90.00;99029.50;4987861;28;20038;-58
2022/04/12 04:00:59;;;;;;;6.13;5.10;;;;;;;4.11;89.53;99033.03;4972714;28;20134;-58
2022/04/12 04:03:25;;;;;;;5.35;4.85;;;;;;;4.34;89.67;99024.38;4972017;28;20045;-57
2022/04/12 04:05:51;;;;;;;7.60;5.13;;;;;;;4.46;89.21;99019.16;4972720;28;20107;-58
2022/04/12 04:08:16;;;;;;;6.70;5.10;;;;;;;4.55;89.47;99014.81;4972934;28;20018;-58
2022/04/12 04:10:42;;;;;;;6.03;5.13;;;;;;;4.32;89.73;99032.06;4972644;28;20023;-57
2022/04/12 04:13:08;;;;;;;6.18;5.10;;;;;;;4.37;89.51;99031.19;4972449;28;20022;-57
2022/04/12 04:15:42;;;;;;;8.32;5.35;;;;;;;4.12;89.50;98967.28;4972931;28;20476;-58
2022/04/12 04:18:08;;;;;;;8.43;5.95;;;;;;;4.51;89.41;99029.38;4972929;28;20041;-58
2022/04/12 04:20:34;;;;;;;6.32;5.07;;;;;;;4.21;89.78;99030.44;4955207;28;20027;-58
2022/04/12 04:22:59;;;;;;;6.88;5.45;;;;;;;4.51;90.24;99042.19;4974727;28;20170;-57
2022/04/12 04:25:25;;;;;;;7.65;5.47;;;;;;;4.47;89.89;99036.22;4976698;28;20434;-56
2022/04/12 04:27:50;;;;;;;6.15;4.97;;;;;;;4.55;89.68;99041.31;4991074;28;20031;-57
2022/04/12 04:30:18;;;;;;;8.40;5.75;;;;;;;4.62;88.94;99050.66;4978010;28;20420;-57
2022/04/12 04:32:43;;;;;;;7.03;5.70;;;;;;;4.53;89.74;99050.72;4964508;28;20054;-58
2022/04/12 04:35:09;;;;;;;7.28;5.18;;;;;;;4.75;89.00;99042.88;4976480;28;20039;-57
2022/04/12 04:37:49;;;;;;;8.75;5.25;;;;;;;4.61;89.21;99063.50;4976184;28;20035;-57
2022/04/12 04:40:20;;;;;;;8.05;6.10;;;;;;;4.32;89.62;98990.22;4977754;28;20042;-58
2022/04/12 04:42:46;;;;;;;7.97;5.82;;;;;;;4.77;89.43;99051.38;4981144;28;20031;-56
2022/04/12 04:45:13;;;;;;;9.95;6.07;;;;;;;4.61;89.53;99048.94;4975986;28;20031;-58
2022/04/12 04:47:52;;;;;;;7.20;5.80;;;;;;;4.57;90.06;99044.69;4974631;28;20030;-57
2022/04/12 04:50:23;;;;;;;8.40;5.78;;;;;;;4.30;90.49;99013.28;4975966;28;20042;-57
2022/04/12 04:52:49;;;;;;;7.87;5.73;;;;;;;4.70;90.55;99044.59;4976061;28;20480;-58
2022/04/12 04:55:16;;;;;;;7.80;6.28;;;;;;;4.61;89.94;99037.84;4976153;28;20515;-57
2022/04/12 04:57:43;;;;;;;12.25;7.20;;;;;;;4.79;90.12;99039.41;4975924;28;20476;-56
2022/04/12 05:00:17;;;;;;;9.52;6.80;;;;;;;4.80;89.53;99035.97;4975503;28;20047;-60
2022/04/12 05:02:47;;;;;;;10.68;6.28;;;;;;;4.74;89.53;99046.28;4973126;28;20038;-57
2022/04/12 05:05:13;;;;;;;7.68;6.07;;;;;;;4.73;90.74;99044.59;4975850;28;20031;-57
2022/04/12 05:07:40;;;;;;;9.32;5.95;;;;;;;4.88;89.77;99043.63;4975739;28;20027;-57
2022/04/12 05:10:07;;;;;;;9.43;6.47;;;;;;;4.77;89.59;99033.44;4975527;28;20027;-58
2022/04/12 05:12:33;;;;;;;8.77;6.28;;;;;;;4.87;89.77;99029.91;4975139;28;20081;-57
2022/04/12 05:14:58;;;;;;;10.00;6.47;;;;;;;4.86;89.42;99025.69;4990484;28;20022;-57
2022/04/12 05:17:27;;;;;;;8.52;5.80;;;;;;;4.94;90.60;99029.00;4994769;28;20026;-57
2022/04/12 05:19:56;;;;;;;12.13;7.10;;;;;;;4.82;89.90;99024.84;4951976;28;20057;-56
2022/04/12 05:22:22;;;;;;;13.13;8.35;;;;;;;5.03;90.24;99009.25;4975645;28;20061;-56
2022/04/12 05:24:48;;;;;;;10.63;6.68;;;;;;;4.95;89.45;99010.19;4975402;28;20031;-57
2022/04/12 05:27:14;;;;;;;9.85;7.20;;;;;;;4.98;90.27;99028.09;4941853;28;20456;-57
2022/04/12 05:29:40;;;;;;;10.10;7.50;;;;;;;5.09;90.07;99020.31;4975019;28;20035;-57
2022/04/12 05:32:06;;;;;;;15.27;7.97;;;;;;;4.89;90.15;99028.22;4974707;28;20027;-56
2022/04/12 05:34:32;;;;;;;12.32;7.68;;;;;;;5.08;90.11;99035.72;4974608;28;20041;-56
2022/04/12 05:36:57;;;;;;;10.55;7.45;;;;;;;5.05;90.50;99038.34;4957678;28;20395;-57
2022/04/12 05:39:23;;;;;;;11.00;8.02;;;;;;;5.17;90.18;99033.94;4993243;28;20030;-57
2022/04/12 05:41:48;;;;;;;13.20;8.40;;;;;;;4.86;90.46;99020.53;4980723;28;20038;-56
2022/04/12 05:44:14;;;;;;;15.18;8.90;;;;;;;5.17;90.95;99033.06;4984220;28;20438;-57
2022/04/12 05:46:39;;;;;;;13.80;8.85;;;;;;;5.14;90.50;99035.66;4968970;28;20384;-56
2022/04/12 05:49:05;;;;;;;15.07;9.02;;;;;;;5.35;90.06;99039.72;4955798;29;20050;-56
2022/04/12 05:51:31;;;;;;;12.32;8.57;;;;;;;5.08;91.18;99035.72;4974715;28;20031;-57
2022/04/12 05:53:56;;;;;;;10.85;8.27;;;;;;;5.35;90.13;99050.84;4986036;28;20023;-57
2022/04/12 05:56:22;;;;;;;12.20;9.65;;;;;;;4.90;90.70;99047.00;4975028;28;20023;-58
2022/04/12 05:58:47;;;;;;;13.60;10.30;;;;;;;5.00;91.01;99040.91;4974457;28;20475;-57
2022/04/12 06:01:13;;;;;;;15.00;9.98;;;;;;;4.96;91.62;99040.13;4974456;28;20050;-57
2022/04/12 06:03:38;;;;;;;15.20;10.60;;;;;;;4.97;91.90;99036.69;4973930;28;20365;-56
2022/04/12 06:06:04;;;;;;;14.95;10.27;;;;;;;5.07;91.73;99040.00;4974339;28;20023;-57
2022/04/12 06:08:30;;;;;;;16.88;10.90;;;;;;;4.97;92.20;99044.38;4978958;28;20090;-58
2022/04/12 06:10:55;;;;;;;16.20;10.82;;;;;;;5.20;91.58;99043.28;4972027;28;20018;-57
2022/04/12 06:13:21;;;;;;;16.65;10.95;;;;;;;5.16;91.58;99041.66;4985273;28;20022;-58
2022/04/12 06:15:46;;;;;;;18.15;11.20;;;;;;;5.21;91.23;99026.19;4981982;28;20035;-57
2022/04/12 06:18:12;;;;;;;14.80;11.05;;;;;;;5.14;92.04;99026.22;4986347;28;20034;-57
2022/04/12 06:20:38;;;;;;;20.30;12.63;;;;;;;5.11;92.60;99045.97;4973508;28;20034;-57
2022/04/12 06:23:04;;;;;;;17.60;11.35;;;;;;;5.14;92.74;99031.38;4986375;28;20041;-56
2022/04/12 06:25:30;;;;;;;18.30;12.80;;;;;;;5.21;92.72;99024.47;4989676;28;20030;-57
2022/04/12 06:27:55;;;;;;;22.25;12.85;;;;;;;5.42;91.96;99025.97;4990035;28;20045;-57
2022/04/12 06:30:30;;;;;;;21.15;13.00;;;;;;;5.11;91.34;98967.25;4986614;28;20026;-57
2022/04/12 06:32:56;;;;;;;18.92;13.00;;;;;;;5.50;91.86;99031.88;4985292;28;20646;-57
2022/04/12 06:35:23;;;;;;;18.05;12.65;;;;;;;5.46;92.12;99026.78;4986844;28;20069;-58
2022/04/12 06:37:53;;;;;;;18.88;12.82;;;;;;;5.63;91.46;99022.28;4986897;28;20027;-58
2022/04/12 06:40:20;;;;;;;20.15;12.07;;;;;;;5.75;91.47;99029.00;4974963;28;20031;-58
2022/04/12 06:42:48;;;;;;;17.52;11.30;;;;;;;5.47;91.66;99031.91;4969439;28;20031;-57
2022/04/12 06:45:14;;;;;;;20.80;12.45;;;;;;;5.43;91.60;99037.94;4970351;28;20102;-57
2022/04/12 06:47:40;;;;;;;18.13;11.98;;;;;;;5.46;92.00;99043.03;4974047;28;20122;-57
2022/04/12 06:50:08;;;;;;;16.50;11.07;;;;;;;5.57;91.56;99047.19;4972690;28;20039;-57
2022/04/12 06:52:34;;;;;;;18.88;12.20;;;;;;;5.66;91.69;99045.38;4973287;28;20126;-58
2022/04/12 06:55:00;;;;;;;20.08;11.68;;;;;;;5.53;91.66;99043.81;4973480;28;20111;-57
2022/04/12 06:57:29;;;;;;;20.00;11.82;;;;;;;5.86;91.21;99046.84;4973755;28;20410;-57
2022/04/12 06:59:55;;;;;;;14.73;10.50;;;;;;;6.07;90.06;99052.59;4972660;28;20022;-56
2022/04/12 07:02:21;;;;;;;14.02;10.25;;;;;;;6.00;90.02;99042.41;4973233;28;20057;-57
2022/04/12 07:04:46;;;;;;;13.93;10.63;;;;;;;5.82;90.33;99040.03;4975653;28;20401;-56
2022/04/12 07:07:12;;;;;;;14.48;11.20;;;;;;;5.78;90.68;99046.09;4955760;28;20479;-58
2022/04/12 07:09:37;;;;;;;17.20;11.50;;;;;;;5.91;90.65;99033.94;4955509;28;20033;-57
2022/04/12 07:12:03;;;;;;;15.98;11.18;;;;;;;5.76;91.69;99037.53;4975344;28;20033;-56
2022/04/12 07:14:31;;;;;;;16.08;11.52;;;;;;;5.90;90.97;99035.66;4990322;28;20026;-57
2022/04/12 07:16:56;;;;;;;15.65;11.45;;;;;;;6.11;90.47;99039.69;4990548;28;20467;-56
2022/04/12 07:19:22;;;;;;;14.50;11.27;;;;;;;6.25;89.83;99034.34;4992309;28;20035;-57
2022/04/12 07:21:48;;;;;;;16.20;12.27;;;;;;;6.34;89.83;99039.38;4976938;28;20030;-57
2022/04/12 07:24:14;;;;;;;17.83;13.40;;;;;;;6.43;89.24;99037.50;4979242;28;20034;-57
2022/04/12 07:26:40;;;;;;;18.90;13.45;;;;;;;6.57;88.60;99038.19;4984881;28;20093;-58
2022/04/12 07:29:05;;;;;;;19.88;13.23;;;;;;;6.55;88.88;99032.19;4975230;28;20407;-56
2022/04/12 07:31:31;;;;;;;20.90;13.85;;;;;;;6.62;88.32;99040.66;4986030;28;20019;-56
2022/04/12 07:33:57;;;;;;;19.67;13.55;;;;;;;6.68;88.31;99043.13;4992804;28;20097;-56
2022/04/12 07:36:22;;;;;;;20.40;14.63;;;;;;;6.71;87.58;99046.50;4971125;28;20035;-56
2022/04/12 07:38:51;;;;;;;18.90;13.88;;;;;;;6.82;87.67;99056.63;4972970;28;20027;-56
2022/04/12 07:41:17;;;;;;;18.40;12.27;;;;;;;6.82;87.89;99045.47;4981310;28;20406;-56
2022/04/12 07:43:46;;;;;;;17.88;12.68;;;;;;;6.71;87.97;99033.66;4988329;28;20476;-56
2022/04/12 07:46:13;;;;;;;19.30;13.52;;;;;;;6.74;87.95;99048.16;4972822;28;20499;-56
2022/04/12 07:48:43;;;;;;;17.98;13.82;;;;;;;6.78;87.59;99056.69;4972396;28;20440;-56
2022/04/12 07:51:09;;;;;;;20.73;14.43;;;;;;;6.77;88.26;99055.88;4972770;28;20100;-56
2022/04/12 07:53:34;;;;;;;21.88;13.85;;;;;;;6.97;87.22;99055.53;4972943;28;20110;-56
2022/04/12 07:56:00;;;;;;;19.58;13.63;;;;;;;7.08;87.14;99045.91;4984117;28;20108;-57
2022/04/12 07:58:26;;;;;;;19.20;14.15;;;;;;;7.03;87.32;99049.44;4986309;28;20029;-56
2022/04/12 08:00:51;;;;;;;19.48;14.43;;;;;;;7.06;86.69;99057.09;4995905;28;20057;-57
2022/04/12 08:03:20;;;;;;;19.65;14.85;;;;;;;7.23;86.67;99064.53;4972632;28;20035;-56
2022/04/12 08:05:47;;;;;;;19.38;14.15;;;;;;;7.35;86.41;99066.84;4990385;28;20025;-57
2022/04/12 08:08:13;;;;;;;21.27;14.68;;;;;;;7.24;86.36;99068.81;4991670;28;20464;-56
2022/04/12 08:10:38;;;;;;;24.80;15.00;;;;;;;7.30;86.36;99068.69;4992182;28;20042;-56
2022/04/12 08:13:04;;;;;;;20.73;14.85;;;;;;;7.36;86.64;99067.72;4994678;28;20034;-57
2022/04/12 08:15:29;;;;;;;20.73;14.07;;;;;;;7.41;86.32;99066.75;4995390;28;20033;-57
2022/04/12 08:17:55;;;;;;;24.27;15.57;;;;;;;7.43;86.24;99069.31;4994608;28;20033;-57
2022/04/12 08:20:21;;;;;;;20.08;14.20;;;;;;;7.56;86.41;99070.75;4991365;28;20161;-57
2022/04/12 08:22:46;;;;;;;20.13;13.48;;;;;;;7.67;86.02;99069.72;4987916;28;20459;-57
2022/04/12 08:25:12;;;;;;;21.40;15.05;;;;;;;7.82;85.69;99074.56;4995105;28;20093;-57
2022/04/12 08:27:38;;;;;;;22.52;15.27;;;;;;;7.84;84.65;99075.38;4970840;28;20046;-56
2022/04/12 08:30:06;;;;;;;20.60;14.52;;;;;;;7.91;84.98;99073.53;4987767;28;20058;-58
2022/04/12 08:32:33;;;;;;;22.48;16.33;;;;;;;7.92;84.47;99075.22;4976847;28;20104;-58
2022/04/12 08:34:59;;;;;;;25.30;16.35;;;;;;;7.78;85.32;99058.31;4979512;28;20042;-57
2022/04/12 08:37:24;;;;;;;20.20;15.15;;;;;;;8.00;85.23;99069.91;4975661;28;20360;-56
2022/04/12 08:39:51;;;;;;;24.00;15.40;;;;;;;8.07;84.70;99063.75;4973408;28;20100;-56
2022/04/12 08:42:17;;;;;;;18.33;13.43;;;;;;;7.99;84.12;99038.09;4976172;28;20553;-58
2022/04/12 08:44:45;;;;;;;23.20;16.15;;;;;;;7.90;83.85;98999.66;4972739;28;20038;-57
2022/04/12 08:47:14;;;;;;;21.08;15.60;;;;;;;8.05;84.42;99050.03;4975293;28;20027;-57
2022/04/12 08:49:40;;;;;;;20.25;15.25;;;;;;;8.25;83.76;99054.75;4973926;28;20023;-56
2022/04/12 08:52:13;;;;;;;20.45;14.73;;;;;;;8.35;84.16;99045.06;4973205;28;20483;-57
2022/04/12 08:54:43;;;;;;;19.80;14.10;;;;;;;8.03;83.48;98988.16;4976319;28;20038;-57
2022/04/12 08:57:10;;;;;;;21.55;14.90;;;;;;;8.14;83.28;99036.94;4966547;28;20522;-57
2022/04/12 08:59:36;;;;;;;19.67;14.85;;;;;;;8.48;83.26;99048.25;4976733;28;20387;-57
2022/04/12 09:02:03;;;;;;;19.88;14.68;;;;;;;8.52;83.53;99042.97;4974355;28;20718;-57
2022/04/12 09:04:29;;;;;;;22.40;15.02;;;;;;;8.55;83.01;99050.66;4969888;28;20054;-57
2022/04/12 09:06:59;;;;;;;25.70;17.02;;;;;;;8.56;83.47;99052.34;4957793;28;20464;-57
2022/04/12 09:09:27;;;;;;;22.52;15.80;;;;;;;8.56;84.05;99039.44;4967492;28;20080;-58
2022/04/12 09:12:04;;;;;;;22.02;15.80;;;;;;;8.60;83.91;99047.97;4974697;28;20038;-57
2022/04/12 09:14:42;;;;;;;20.55;14.07;;;;;;;8.53;81.99;98987.91;4973707;28;20551;-57
2022/04/12 09:17:13;;;;;;;18.92;15.48;;;;;;;8.95;81.64;99059.16;4973227;28;20034;-57
2022/04/12 09:19:55;;;;;;;19.33;15.93;;;;;;;8.69;81.44;98990.09;4971134;28;20051;-57
2022/04/12 09:22:25;;;;;;;20.73;15.05;;;;;;;8.87;81.33;99048.19;4973720;28;20042;-57
2022/04/12 09:25:02;;;;;;;19.92;14.48;;;;;;;8.41;83.59;99001.09;4971970;28;20027;-56
2022/04/12 09:27:31;;;;;;;20.05;15.40;;;;;;;8.84;82.71;99063.75;4973991;28;20345;-58
2022/04/12 09:30:01;;;;;;;21.33;14.85;;;;;;;8.95;82.35;99059.16;4973419;28;20384;-59
2022/04/12 09:32:34;;;;;;;20.42;15.43;;;;;;;8.51;81.97;99005.16;4973910;28;20033;-57
2022/04/12 09:35:00;;;;;;;19.73;14.23;;;;;;;9.03;82.11;99064.97;4974519;28;20027;-57
2022/04/12 09:37:28;;;;;;;16.92;13.88;;;;;;;8.72;82.73;99005.50;4975088;28;20031;-56
2022/04/12 09:39:55;;;;;;;22.25;14.20;;;;;;;9.17;81.69;99062.06;4966409;28;20039;-56
2022/04/12 09:42:42;;;;;;;22.00;14.43;;;;;;;9.24;81.11;99065.34;4971572;28;20065;-56
2022/04/12 09:45:12;;;;;;;18.25;14.02;;;;;;;9.30;80.71;99070.34;4973781;28;20122;-56
2022/04/12 09:47:39;;;;;;;18.05;14.02;;;;;;;9.30;81.82;99067.75;4974339;28;20041;-57
2022/04/12 09:50:06;;;;;;;21.45;14.80;;;;;;;9.33;81.53;99070.25;4974554;28;20027;-57
2022/04/12 09:52:31;;;;;;;21.20;15.45;;;;;;;9.42;80.95;99064.84;4973293;28;20027;-58
2022/04/12 09:54:58;;;;;;;20.50;15.02;;;;;;;9.17;80.56;99019.88;4970011;28;20034;-58
2022/04/12 09:57:24;;;;;;;23.23;14.80;;;;;;;9.43;81.79;99076.03;4974310;28;20023;-58
2022/04/12 09:59:54;;;;;;;20.40;14.45;;;;;;;9.53;80.29;99068.88;4974634;28;20113;-57
2022/04/12 10:02:22;;;;;;;22.23;14.73;;;;;;;9.60;80.01;99072.97;4972657;28;20499;-57
2022/04/12 10:04:50;;;;;;;20.70;14.63;;;;;;;9.31;80.95;99031.53;4973917;28;20030;-57
2022/04/12 10:07:18;;;;;;;25.23;16.20;;;;;;;9.54;80.14;99086.09;4970194;28;20035;-57
2022/04/12 10:09:47;;;;;;;23.50;15.07;;;;;;;9.07;81.19;99029.59;4973394;28;20023;-55
2022/04/12 10:12:13;;;;;;;25.55;16.30;;;;;;;9.60;81.67;99085.91;4971694;28;20026;-57
2022/04/12 10:14:39;;;;;;;23.38;15.80;;;;;;;9.57;80.58;99088.59;4972596;28;20023;-57
2022/04/12 10:17:05;;;;;;;25.30;17.52;;;;;;;9.56;81.03;99092.88;4980000;28;20037;-57
2022/04/12 10:19:31;;;;;;;19.95;16.00;;;;;;;9.58;81.00;99103.22;4963726;28;20106;-57
2022/04/12 10:21:56;;;;;;;28.48;18.20;;;;;;;9.69;81.01;99103.78;4971073;28;20027;-57
2022/04/12 10:24:23;;;;;;;26.08;18.88;;;;;;;9.79;81.08;99097.44;4973968;28;20035;-57
2022/04/12 10:26:50;;;;;;;30.95;20.35;;;;;;;9.73;79.84;99087.25;4967718;28;20092;-57
2022/04/12 10:29:16;;;;;;;29.85;20.33;;;;;;;9.81;80.07;99094.81;4973274;28;20591;-57
2022/04/12 10:31:56;;;;;;;29.50;21.73;;;;;;;9.52;81.03;99096.47;4971274;28;20399;-57
2022/04/12 10:34:22;;;;;;;27.58;20.05;;;;;;;9.57;80.68;99099.75;4970571;28;20066;-57
2022/04/12 10:37:08;;;;;;;31.95;20.52;;;;;;;9.42;79.99;99057.09;4975568;28;20114;-57
2022/04/12 10:40:06;;;;;;;30.08;20.40;;;;;;;9.75;80.30;99105.31;4971167;28;20578;-57
2022/04/12 10:42:33;;;;;;;31.77;20.70;;;;;;;9.76;79.97;99104.44;4991133;28;20030;-58
2022/04/12 10:45:02;;;;;;;32.70;22.75;;;;;;;9.48;80.08;99066.41;4978408;28;20035;-57
2022/04/12 10:47:34;;;;;;;30.17;21.35;;;;;;;9.87;79.76;99109.31;4972920;28;20045;-58
2022/04/12 10:50:03;;;;;;;33.00;22.50;;;;;;;9.64;80.07;99057.34;4972742;28;20034;-57
2022/04/12 10:52:48;;;;;;;32.63;21.70;;;;;;;9.83;80.28;99096.47;4971033;28;20517;-58
2022/04/12 10:55:16;;;;;;;32.17;21.88;;;;;;;9.96;80.37;99128.03;4972540;28;20447;-57
2022/04/12 10:57:42;;;;;;;30.55;22.38;;;;;;;9.98;79.35;99102.09;4972251;28;20050;-57
2022/04/12 11:00:14;;;;;;;32.58;20.98;;;;;;;9.94;79.59;99110.84;4970418;28;20078;-57
2022/04/12 11:02:45;;;;;;;33.17;22.45;;;;;;;9.84;79.85;99102.50;4970500;28;20046;-57
2022/04/12 11:05:33;;;;;;;31.88;22.60;;;;;;;9.89;80.64;99097.19;4970018;28;20105;-57
2022/04/12 11:08:13;;;;;;;34.10;22.20;;;;;;;9.90;79.64;99093.72;4971588;28;20035;-57
2022/04/12 11:10:40;;;;;;;33.20;22.30;;;;;;;9.74;80.55;99088.97;4958728;28;20033;-56
2022/04/12 11:13:11;;;;;;;31.80;21.33;;;;;;;9.77;80.52;99082.88;4965621;28;20031;-58
2022/04/12 11:15:39;;;;;;;30.48;21.33;;;;;;;9.80;80.73;99095.69;4970768;28;20522;-58
2022/04/12 11:18:16;;;;;;;32.85;22.85;;;;;;;9.72;80.90;99088.16;4955274;28;20030;-59
2022/04/12 11:20:58;;;;;;;27.60;20.27;;;;;;;9.87;80.20;99091.22;4972421;28;20496;-57
2022/04/12 11:23:44;;;;;;;34.13;20.40;;;;;;;9.92;80.45;99094.50;4972247;28;20548;-59
2022/04/12 11:26:36;;;;;;;30.30;21.27;;;;;;;9.83;80.13;99080.09;4972133;28;20465;-59
2022/04/12 11:29:26;;;;;;;35.53;22.55;;;;;;;9.72;80.50;99085.59;4972335;28;20081;-58
2022/04/12 11:31:53;;;;;;;36.65;22.08;;;;;;;9.68;81.31;99084.81;4971795;28;20042;-58
2022/04/12 11:34:21;;;;;;;33.80;21.67;;;;;;;9.67;81.66;99084.84;4972234;28;20030;-58
2022/04/12 11:36:57;;;;;;;28.52;20.77;;;;;;;9.72;82.07;99074.38;4971713;28;20098;-57